sensor_id;sensor_type;location;lat;lon;timestamp;P1;durP1;ratioP1;P2;durP2;ratioP2
63050;SDS011;49136;47.416;19.402;2023-03-13T00:02:08;5.25;;;3.30;;
63050;SDS011;49136;47.416;19.402;2023-03-13T00:04:34;2.65;;;1.65;;
63050;SDS011;49136;47.416;19.402;2023-03-13T00:06:59;8.10;;;2.80;;
63050;SDS011;49136;47.416;19.402;2023-03-13T00:09:25;9.98;;;2.85;;
63050;SDS011;49136;47.416;19.402;2023-03-13T00:11:51;3.08;;;2.17;;
63050;SDS011;49136;47.416;19.402;2023-03-13T00:14:16;6.22;;;2.17;;
63050;SDS011;49136;47.416;19.402;2023-03-13T00:16:42;5.10;;;2.95;;
63050;SDS011;49136;47.416;19.402;2023-03-13T00:19:07;6.90;;;4.03;;
63050;SDS011;49136;47.416;19.402;2023-03-13T00:21:33;3.95;;;1.98;;
63050;SDS011;49136;47.416;19.402;2023-03-13T00:24:01;6.13;;;2.42;;
63050;SDS011;49136;47.416;19.402;2023-03-13T00:26:27;8.00;;;3.17;;
63050;SDS011;49136;47.416;19.402;2023-03-13T00:28:54;5.00;;;2.05;;
63050;SDS011;49136;47.416;19.402;2023-03-13T00:31:21;4.57;;;2.40;;
63050;SDS011;49136;47.416;19.402;2023-03-13T00:33:47;6.78;;;2.67;;
63050;SDS011;49136;47.416;19.402;2023-03-13T00:36:21;4.00;;;2.53;;
63050;SDS011;49136;47.416;19.402;2023-03-13T00:38:48;3.65;;;2.22;;
63050;SDS011;49136;47.416;19.402;2023-03-13T00:41:18;3.85;;;2.30;;
63050;SDS011;49136;47.416;19.402;2023-03-13T00:43:46;5.32;;;2.42;;
63050;SDS011;49136;47.416;19.402;2023-03-13T00:46:12;2.85;;;1.92;;
63050;SDS011;49136;47.416;19.402;2023-03-13T00:48:39;5.88;;;3.25;;
63050;SDS011;49136;47.416;19.402;2023-03-13T00:51:05;4.63;;;2.75;;
63050;SDS011;49136;47.416;19.402;2023-03-13T00:53:32;6.53;;;2.95;;
63050;SDS011;49136;47.416;19.402;2023-03-13T00:55:59;5.60;;;2.30;;
63050;SDS011;49136;47.416;19.402;2023-03-13T00:58:25;7.80;;;2.92;;
63050;SDS011;49136;47.416;19.402;2023-03-13T01:00:52;5.35;;;2.38;;
63050;SDS011;49136;47.416;19.402;2023-03-13T01:03:18;5.43;;;1.88;;
63050;SDS011;49136;47.416;19.402;2023-03-13T01:05:44;4.47;;;2.67;;
63050;SDS011;49136;47.416;19.402;2023-03-13T01:08:10;5.35;;;2.00;;
63050;SDS011;49136;47.416;19.402;2023-03-13T01:10:36;2.63;;;1.83;;
63050;SDS011;49136;47.416;19.402;2023-03-13T01:13:01;11.85;;;3.10;;
63050;SDS011;49136;47.416;19.402;2023-03-13T01:15:29;6.57;;;3.03;;
63050;SDS011;49136;47.416;19.402;2023-03-13T01:17:55;8.05;;;2.75;;
63050;SDS011;49136;47.416;19.402;2023-03-13T01:20:20;4.32;;;2.22;;
63050;SDS011;49136;47.416;19.402;2023-03-13T01:22:46;4.40;;;2.28;;
63050;SDS011;49136;47.416;19.402;2023-03-13T01:25:11;4.53;;;2.55;;
63050;SDS011;49136;47.416;19.402;2023-03-13T01:27:37;4.43;;;1.98;;
63050;SDS011;49136;47.416;19.402;2023-03-13T01:30:02;4.00;;;2.78;;
63050;SDS011;49136;47.416;19.402;2023-03-13T01:32:28;4.82;;;1.80;;
63050;SDS011;49136;47.416;19.402;2023-03-13T01:34:53;4.60;;;2.22;;
63050;SDS011;49136;47.416;19.402;2023-03-13T01:37:19;4.53;;;2.13;;
63050;SDS011;49136;47.416;19.402;2023-03-13T01:39:44;2.28;;;1.75;;
63050;SDS011;49136;47.416;19.402;2023-03-13T01:42:09;11.02;;;2.80;;
63050;SDS011;49136;47.416;19.402;2023-03-13T01:44:48;4.60;;;2.63;;
63050;SDS011;49136;47.416;19.402;2023-03-13T01:47:18;5.68;;;2.63;;
63050;SDS011;49136;47.416;19.402;2023-03-13T01:49:44;8.25;;;2.80;;
63050;SDS011;49136;47.416;19.402;2023-03-13T01:52:44;4.90;;;2.22;;
63050;SDS011;49136;47.416;19.402;2023-03-13T01:55:12;6.50;;;2.30;;
63050;SDS011;49136;47.416;19.402;2023-03-13T01:57:42;4.97;;;2.80;;
63050;SDS011;49136;47.416;19.402;2023-03-13T02:00:16;5.40;;;2.92;;
63050;SDS011;49136;47.416;19.402;2023-03-13T02:02:54;5.35;;;2.08;;
63050;SDS011;49136;47.416;19.402;2023-03-13T02:05:23;5.72;;;3.55;;
63050;SDS011;49136;47.416;19.402;2023-03-13T02:07:55;10.60;;;3.42;;
63050;SDS011;49136;47.416;19.402;2023-03-13T02:10:26;4.50;;;1.48;;
63050;SDS011;49136;47.416;19.402;2023-03-13T02:12:53;2.38;;;1.48;;
63050;SDS011;49136;47.416;19.402;2023-03-13T02:15:20;5.38;;;3.13;;
63050;SDS011;49136;47.416;19.402;2023-03-13T02:17:48;4.38;;;2.13;;
63050;SDS011;49136;47.416;19.402;2023-03-13T02:20:16;4.00;;;2.45;;
63050;SDS011;49136;47.416;19.402;2023-03-13T02:28:02;14.02;;;2.60;;
63050;SDS011;49136;47.416;19.402;2023-03-13T02:32:57;4.05;;;2.75;;
63050;SDS011;49136;47.416;19.402;2023-03-13T02:35:24;6.97;;;2.75;;
63050;SDS011;49136;47.416;19.402;2023-03-13T02:37:51;5.30;;;1.77;;
63050;SDS011;49136;47.416;19.402;2023-03-13T02:40:21;6.22;;;2.13;;
63050;SDS011;49136;47.416;19.402;2023-03-13T02:42:51;14.98;;;2.60;;
63050;SDS011;49136;47.416;19.402;2023-03-13T02:45:18;4.20;;;2.60;;
63050;SDS011;49136;47.416;19.402;2023-03-13T02:47:44;4.43;;;2.45;;
63050;SDS011;49136;47.416;19.402;2023-03-13T02:50:10;6.60;;;2.88;;
63050;SDS011;49136;47.416;19.402;2023-03-13T02:52:37;3.83;;;2.40;;
63050;SDS011;49136;47.416;19.402;2023-03-13T02:55:11;6.25;;;3.30;;
63050;SDS011;49136;47.416;19.402;2023-03-13T02:57:42;4.95;;;2.72;;
63050;SDS011;49136;47.416;19.402;2023-03-13T03:00:08;5.18;;;2.78;;
63050;SDS011;49136;47.416;19.402;2023-03-13T03:02:36;4.50;;;2.28;;
63050;SDS011;49136;47.416;19.402;2023-03-13T03:05:02;5.30;;;2.95;;
63050;SDS011;49136;47.416;19.402;2023-03-13T03:07:28;7.90;;;2.75;;
63050;SDS011;49136;47.416;19.402;2023-03-13T03:09:54;7.55;;;3.08;;
63050;SDS011;49136;47.416;19.402;2023-03-13T03:12:19;5.30;;;2.83;;
63050;SDS011;49136;47.416;19.402;2023-03-13T03:14:45;6.22;;;2.33;;
63050;SDS011;49136;47.416;19.402;2023-03-13T03:17:11;4.65;;;3.00;;
63050;SDS011;49136;47.416;19.402;2023-03-13T03:19:36;7.97;;;2.75;;
63050;SDS011;49136;47.416;19.402;2023-03-13T03:22:02;7.55;;;3.85;;
63050;SDS011;49136;47.416;19.402;2023-03-13T03:24:27;3.90;;;2.75;;
63050;SDS011;49136;47.416;19.402;2023-03-13T03:26:53;7.07;;;2.55;;
63050;SDS011;49136;47.416;19.402;2023-03-13T03:29:18;7.95;;;4.00;;
63050;SDS011;49136;47.416;19.402;2023-03-13T03:31:44;4.63;;;2.60;;
63050;SDS011;49136;47.416;19.402;2023-03-13T03:34:09;7.50;;;2.60;;
63050;SDS011;49136;47.416;19.402;2023-03-13T03:36:35;8.00;;;2.63;;
63050;SDS011;49136;47.416;19.402;2023-03-13T03:39:00;7.53;;;2.33;;
63050;SDS011;49136;47.416;19.402;2023-03-13T03:41:26;4.30;;;2.58;;
63050;SDS011;49136;47.416;19.402;2023-03-13T03:43:51;16.23;;;3.17;;
63050;SDS011;49136;47.416;19.402;2023-03-13T03:46:17;5.55;;;1.98;;
63050;SDS011;49136;47.416;19.402;2023-03-13T03:48:42;7.55;;;3.22;;
63050;SDS011;49136;47.416;19.402;2023-03-13T03:51:08;7.50;;;2.08;;
63050;SDS011;49136;47.416;19.402;2023-03-13T03:53:34;4.28;;;2.50;;
63050;SDS011;49136;47.416;19.402;2023-03-13T03:55:59;7.13;;;2.63;;
63050;SDS011;49136;47.416;19.402;2023-03-13T03:58:25;9.43;;;3.53;;
63050;SDS011;49136;47.416;19.402;2023-03-13T04:00:50;5.50;;;3.15;;
63050;SDS011;49136;47.416;19.402;2023-03-13T04:03:16;8.25;;;3.40;;
63050;SDS011;49136;47.416;19.402;2023-03-13T04:05:41;7.78;;;3.42;;
63050;SDS011;49136;47.416;19.402;2023-03-13T04:08:07;8.48;;;2.83;;
63050;SDS011;49136;47.416;19.402;2023-03-13T04:10:33;4.13;;;1.52;;
63050;SDS011;49136;47.416;19.402;2023-03-13T04:12:58;7.63;;;3.30;;
63050;SDS011;49136;47.416;19.402;2023-03-13T04:15:24;7.55;;;3.58;;
63050;SDS011;49136;47.416;19.402;2023-03-13T04:17:49;8.35;;;3.45;;
63050;SDS011;49136;47.416;19.402;2023-03-13T04:20:15;7.05;;;2.63;;
63050;SDS011;49136;47.416;19.402;2023-03-13T04:22:41;3.92;;;1.73;;
63050;SDS011;49136;47.416;19.402;2023-03-13T04:25:07;11.52;;;3.20;;
63050;SDS011;49136;47.416;19.402;2023-03-13T04:27:32;9.48;;;4.30;;
63050;SDS011;49136;47.416;19.402;2023-03-13T04:30:00;5.50;;;3.00;;
63050;SDS011;49136;47.416;19.402;2023-03-13T04:32:26;14.40;;;4.97;;
63050;SDS011;49136;47.416;19.402;2023-03-13T04:34:52;11.00;;;3.92;;
63050;SDS011;49136;47.416;19.402;2023-03-13T04:37:17;7.85;;;4.75;;
63050;SDS011;49136;47.416;19.402;2023-03-13T04:39:43;5.72;;;2.83;;
63050;SDS011;49136;47.416;19.402;2023-03-13T04:42:08;6.03;;;2.92;;
63050;SDS011;49136;47.416;19.402;2023-03-13T04:44:35;5.50;;;2.65;;
63050;SDS011;49136;47.416;19.402;2023-03-13T04:47:01;6.28;;;2.13;;
63050;SDS011;49136;47.416;19.402;2023-03-13T04:49:26;3.10;;;2.80;;
63050;SDS011;49136;47.416;19.402;2023-03-13T04:51:52;2.65;;;2.38;;
63050;SDS011;49136;47.416;19.402;2023-03-13T04:54:17;7.20;;;3.45;;
63050;SDS011;49136;47.416;19.402;2023-03-13T04:56:43;9.82;;;2.92;;
63050;SDS011;49136;47.416;19.402;2023-03-13T04:59:09;7.10;;;3.63;;
63050;SDS011;49136;47.416;19.402;2023-03-13T05:01:36;4.32;;;2.85;;
63050;SDS011;49136;47.416;19.402;2023-03-13T05:04:01;7.18;;;2.83;;
63050;SDS011;49136;47.416;19.402;2023-03-13T05:06:27;3.85;;;1.83;;
63050;SDS011;49136;47.416;19.402;2023-03-13T05:08:53;4.32;;;2.50;;
63050;SDS011;49136;47.416;19.402;2023-03-13T05:11:18;5.75;;;2.42;;
63050;SDS011;49136;47.416;19.402;2023-03-13T05:13:44;5.93;;;1.98;;
63050;SDS011;49136;47.416;19.402;2023-03-13T05:16:09;6.00;;;2.55;;
63050;SDS011;49136;47.416;19.402;2023-03-13T05:18:34;6.15;;;2.70;;
63050;SDS011;49136;47.416;19.402;2023-03-13T05:21:00;6.50;;;2.92;;
63050;SDS011;49136;47.416;19.402;2023-03-13T05:23:26;5.10;;;2.70;;
63050;SDS011;49136;47.416;19.402;2023-03-13T05:25:52;3.42;;;2.17;;
63050;SDS011;49136;47.416;19.402;2023-03-13T05:28:17;7.50;;;4.03;;
63050;SDS011;49136;47.416;19.402;2023-03-13T05:30:43;5.10;;;2.40;;
63050;SDS011;49136;47.416;19.402;2023-03-13T05:33:08;8.15;;;4.00;;
63050;SDS011;49136;47.416;19.402;2023-03-13T05:35:34;5.47;;;2.72;;
63050;SDS011;49136;47.416;19.402;2023-03-13T05:37:59;13.32;;;3.15;;
63050;SDS011;49136;47.416;19.402;2023-03-13T05:40:24;6.20;;;2.65;;
63050;SDS011;49136;47.416;19.402;2023-03-13T05:42:50;4.75;;;2.15;;
63050;SDS011;49136;47.416;19.402;2023-03-13T05:45:15;7.40;;;3.30;;
63050;SDS011;49136;47.416;19.402;2023-03-13T05:47:41;4.32;;;2.35;;
63050;SDS011;49136;47.416;19.402;2023-03-13T05:50:06;16.35;;;3.80;;
63050;SDS011;49136;47.416;19.402;2023-03-13T05:52:33;5.70;;;2.97;;
63050;SDS011;49136;47.416;19.402;2023-03-13T05:54:58;6.05;;;3.25;;
63050;SDS011;49136;47.416;19.402;2023-03-13T05:57:24;6.60;;;3.45;;
63050;SDS011;49136;47.416;19.402;2023-03-13T05:59:49;6.35;;;3.55;;
63050;SDS011;49136;47.416;19.402;2023-03-13T06:02:15;9.77;;;2.25;;
63050;SDS011;49136;47.416;19.402;2023-03-13T06:04:40;8.77;;;3.40;;
63050;SDS011;49136;47.416;19.402;2023-03-13T06:07:06;7.97;;;3.70;;
63050;SDS011;49136;47.416;19.402;2023-03-13T06:09:31;6.00;;;2.53;;
63050;SDS011;49136;47.416;19.402;2023-03-13T06:11:57;5.53;;;2.83;;
63050;SDS011;49136;47.416;19.402;2023-03-13T06:14:22;8.00;;;3.92;;
63050;SDS011;49136;47.416;19.402;2023-03-13T06:16:48;8.25;;;3.53;;
63050;SDS011;49136;47.416;19.402;2023-03-13T06:19:13;9.43;;;4.53;;
63050;SDS011;49136;47.416;19.402;2023-03-13T06:21:39;6.78;;;2.80;;
63050;SDS011;49136;47.416;19.402;2023-03-13T06:24:05;8.73;;;3.85;;
63050;SDS011;49136;47.416;19.402;2023-03-13T06:26:30;6.20;;;3.95;;
63050;SDS011;49136;47.416;19.402;2023-03-13T06:28:56;7.82;;;4.05;;
63050;SDS011;49136;47.416;19.402;2023-03-13T06:31:21;8.75;;;3.05;;
63050;SDS011;49136;47.416;19.402;2023-03-13T06:33:47;12.48;;;3.20;;
63050;SDS011;49136;47.416;19.402;2023-03-13T06:36:12;11.35;;;4.50;;
63050;SDS011;49136;47.416;19.402;2023-03-13T06:38:38;7.07;;;4.03;;
63050;SDS011;49136;47.416;19.402;2023-03-13T06:41:04;8.13;;;3.13;;
63050;SDS011;49136;47.416;19.402;2023-03-13T06:43:31;4.25;;;2.67;;
63050;SDS011;49136;47.416;19.402;2023-03-13T06:46:01;19.85;;;3.85;;
63050;SDS011;49136;47.416;19.402;2023-03-13T06:48:27;7.88;;;3.63;;
63050;SDS011;49136;47.416;19.402;2023-03-13T06:50:53;15.60;;;4.82;;
63050;SDS011;49136;47.416;19.402;2023-03-13T06:53:20;7.25;;;3.60;;
63050;SDS011;49136;47.416;19.402;2023-03-13T06:55:46;20.10;;;4.15;;
63050;SDS011;49136;47.416;19.402;2023-03-13T06:58:13;10.73;;;4.25;;
63050;SDS011;49136;47.416;19.402;2023-03-13T07:00:38;11.07;;;4.40;;
63050;SDS011;49136;47.416;19.402;2023-03-13T07:03:04;14.98;;;4.32;;
63050;SDS011;49136;47.416;19.402;2023-03-13T07:05:30;9.40;;;4.35;;
63050;SDS011;49136;47.416;19.402;2023-03-13T07:07:56;11.23;;;4.15;;
63050;SDS011;49136;47.416;19.402;2023-03-13T07:10:21;10.25;;;4.90;;
63050;SDS011;49136;47.416;19.402;2023-03-13T07:12:47;17.17;;;4.97;;
63050;SDS011;49136;47.416;19.402;2023-03-13T07:15:12;11.63;;;3.70;;
63050;SDS011;49136;47.416;19.402;2023-03-13T07:17:38;8.57;;;3.65;;
63050;SDS011;49136;47.416;19.402;2023-03-13T07:20:04;10.25;;;4.65;;
63050;SDS011;49136;47.416;19.402;2023-03-13T07:22:31;5.57;;;3.05;;
63050;SDS011;49136;47.416;19.402;2023-03-13T07:24:56;11.50;;;3.75;;
63050;SDS011;49136;47.416;19.402;2023-03-13T07:27:22;6.30;;;3.22;;
63050;SDS011;49136;47.416;19.402;2023-03-13T07:29:48;12.00;;;3.42;;
63050;SDS011;49136;47.416;19.402;2023-03-13T07:32:13;9.32;;;3.95;;
63050;SDS011;49136;47.416;19.402;2023-03-13T07:34:39;12.00;;;3.88;;
63050;SDS011;49136;47.416;19.402;2023-03-13T07:37:04;10.90;;;3.63;;
63050;SDS011;49136;47.416;19.402;2023-03-13T07:39:30;15.68;;;4.70;;
63050;SDS011;49136;47.416;19.402;2023-03-13T07:41:55;11.13;;;4.18;;
63050;SDS011;49136;47.416;19.402;2023-03-13T07:44:21;8.35;;;3.63;;
63050;SDS011;49136;47.416;19.402;2023-03-13T07:46:46;11.27;;;4.15;;
63050;SDS011;49136;47.416;19.402;2023-03-13T07:49:14;7.53;;;3.75;;
63050;SDS011;49136;47.416;19.402;2023-03-13T07:51:39;7.10;;;3.05;;
63050;SDS011;49136;47.416;19.402;2023-03-13T07:54:05;8.57;;;3.63;;
63050;SDS011;49136;47.416;19.402;2023-03-13T07:56:30;10.50;;;4.18;;
63050;SDS011;49136;47.416;19.402;2023-03-13T07:58:56;11.48;;;4.43;;
63050;SDS011;49136;47.416;19.402;2023-03-13T08:01:22;9.35;;;3.80;;
63050;SDS011;49136;47.416;19.402;2023-03-13T08:03:49;9.50;;;4.20;;
63050;SDS011;49136;47.416;19.402;2023-03-13T08:06:16;7.93;;;3.40;;
63050;SDS011;49136;47.416;19.402;2023-03-13T08:08:47;11.73;;;4.20;;
63050;SDS011;49136;47.416;19.402;2023-03-13T08:11:14;6.13;;;3.70;;
63050;SDS011;49136;47.416;19.402;2023-03-13T08:13:42;6.95;;;3.08;;
63050;SDS011;49136;47.416;19.402;2023-03-13T08:16:12;5.65;;;3.75;;
63050;SDS011;49136;47.416;19.402;2023-03-13T08:18:40;7.60;;;3.63;;
63050;SDS011;49136;47.416;19.402;2023-03-13T08:21:08;7.75;;;2.97;;
63050;SDS011;49136;47.416;19.402;2023-03-13T08:23:38;5.82;;;3.22;;
63050;SDS011;49136;47.416;19.402;2023-03-13T08:26:18;7.93;;;3.03;;
63050;SDS011;49136;47.416;19.402;2023-03-13T08:28:45;6.22;;;2.90;;
63050;SDS011;49136;47.416;19.402;2023-03-13T08:31:16;7.15;;;2.85;;
63050;SDS011;49136;47.416;19.402;2023-03-13T08:33:43;6.93;;;2.55;;
63050;SDS011;49136;47.416;19.402;2023-03-13T08:36:11;5.45;;;2.42;;
63050;SDS011;49136;47.416;19.402;2023-03-13T08:38:39;8.05;;;2.95;;
63050;SDS011;49136;47.416;19.402;2023-03-13T08:41:06;9.00;;;3.17;;
63050;SDS011;49136;47.416;19.402;2023-03-13T08:43:32;6.95;;;2.92;;
63050;SDS011;49136;47.416;19.402;2023-03-13T08:45:58;5.72;;;2.88;;
63050;SDS011;49136;47.416;19.402;2023-03-13T08:48:24;5.30;;;2.33;;
63050;SDS011;49136;47.416;19.402;2023-03-13T08:51:02;7.03;;;3.00;;
63050;SDS011;49136;47.416;19.402;2023-03-13T08:55:57;7.70;;;2.83;;
63050;SDS011;49136;47.416;19.402;2023-03-13T08:58:23;6.90;;;3.60;;
63050;SDS011;49136;47.416;19.402;2023-03-13T09:00:48;6.28;;;2.88;;
63050;SDS011;49136;47.416;19.402;2023-03-13T09:03:13;6.40;;;2.83;;
63050;SDS011;49136;47.416;19.402;2023-03-13T09:05:39;5.30;;;2.80;;
63050;SDS011;49136;47.416;19.402;2023-03-13T09:08:05;3.67;;;2.17;;
63050;SDS011;49136;47.416;19.402;2023-03-13T09:10:34;3.28;;;1.75;;
63050;SDS011;49136;47.416;19.402;2023-03-13T09:13:00;4.43;;;2.55;;
63050;SDS011;49136;47.416;19.402;2023-03-13T09:15:25;3.65;;;2.15;;
63050;SDS011;49136;47.416;19.402;2023-03-13T09:17:51;4.90;;;2.22;;
63050;SDS011;49136;47.416;19.402;2023-03-13T09:20:16;4.80;;;2.55;;
63050;SDS011;49136;47.416;19.402;2023-03-13T09:22:43;7.60;;;2.40;;
63050;SDS011;49136;47.416;19.402;2023-03-13T09:25:09;3.85;;;2.00;;
63050;SDS011;49136;47.416;19.402;2023-03-13T09:27:35;4.05;;;2.17;;
63050;SDS011;49136;47.416;19.402;2023-03-13T09:30:00;6.28;;;2.00;;
63050;SDS011;49136;47.416;19.402;2023-03-13T09:32:26;2.13;;;1.60;;
63050;SDS011;49136;47.416;19.402;2023-03-13T09:34:51;2.00;;;1.42;;
63050;SDS011;49136;47.416;19.402;2023-03-13T09:37:17;5.03;;;2.45;;
63050;SDS011;49136;47.416;19.402;2023-03-13T09:39:42;2.33;;;1.42;;
63050;SDS011;49136;47.416;19.402;2023-03-13T09:42:13;3.10;;;1.45;;
63050;SDS011;49136;47.416;19.402;2023-03-13T09:44:44;6.63;;;1.95;;
63050;SDS011;49136;47.416;19.402;2023-03-13T09:49:46;3.60;;;1.98;;
63050;SDS011;49136;47.416;19.402;2023-03-13T09:57:38;3.65;;;2.13;;
63050;SDS011;49136;47.416;19.402;2023-03-13T10:00:11;4.13;;;1.92;;
63050;SDS011;49136;47.416;19.402;2023-03-13T10:02:44;2.63;;;1.20;;
63050;SDS011;49136;47.416;19.402;2023-03-13T10:05:22;4.60;;;1.90;;
63050;SDS011;49136;47.416;19.402;2023-03-13T10:07:49;2.65;;;1.55;;
63050;SDS011;49136;47.416;19.402;2023-03-13T10:13:27;3.47;;;1.90;;
63050;SDS011;49136;47.416;19.402;2023-03-13T10:15:59;2.15;;;1.25;;
63050;SDS011;49136;47.416;19.402;2023-03-13T10:18:31;5.35;;;1.80;;
63050;SDS011;49136;47.416;19.402;2023-03-13T10:21:00;3.00;;;2.05;;
63050;SDS011;49136;47.416;19.402;2023-03-13T10:26:27;2.08;;;1.38;;
63050;SDS011;49136;47.416;19.402;2023-03-13T10:28:56;4.20;;;1.55;;
63050;SDS011;49136;47.416;19.402;2023-03-13T10:31:30;3.28;;;1.65;;
63050;SDS011;49136;47.416;19.402;2023-03-13T10:34:06;4.13;;;2.15;;
63050;SDS011;49136;47.416;19.402;2023-03-13T10:36:47;5.05;;;2.63;;
63050;SDS011;49136;47.416;19.402;2023-03-13T10:39:17;2.92;;;1.42;;
63050;SDS011;49136;47.416;19.402;2023-03-13T10:44:19;3.25;;;1.65;;
63050;SDS011;49136;47.416;19.402;2023-03-13T10:46:46;5.22;;;1.85;;
63050;SDS011;49136;47.416;19.402;2023-03-13T10:49:17;2.50;;;1.77;;
63050;SDS011;49136;47.416;19.402;2023-03-13T10:51:48;11.48;;;2.05;;
63050;SDS011;49136;47.416;19.402;2023-03-13T10:54:26;4.38;;;1.80;;
63050;SDS011;49136;47.416;19.402;2023-03-13T10:59:50;3.58;;;1.92;;
63050;SDS011;49136;47.416;19.402;2023-03-13T11:02:27;5.65;;;2.35;;
63050;SDS011;49136;47.416;19.402;2023-03-13T11:04:53;3.17;;;1.73;;
63050;SDS011;49136;47.416;19.402;2023-03-13T11:07:27;6.78;;;2.45;;
63050;SDS011;49136;47.416;19.402;2023-03-13T11:12:38;4.50;;;2.13;;
63050;SDS011;49136;47.416;19.402;2023-03-13T11:17:40;3.58;;;2.13;;
63050;SDS011;49136;47.416;19.402;2023-03-13T11:34:43;3.72;;;1.92;;
63050;SDS011;49136;47.416;19.402;2023-03-13T11:37:26;5.03;;;1.60;;
63050;SDS011;49136;47.416;19.402;2023-03-13T11:45:11;4.18;;;1.10;;
63050;SDS011;49136;47.416;19.402;2023-03-13T11:56:40;5.20;;;1.40;;
63050;SDS011;49136;47.416;19.402;2023-03-13T11:59:31;1.90;;;1.38;;
63050;SDS011;49136;47.416;19.402;2023-03-13T12:04:48;4.25;;;1.65;;
63050;SDS011;49136;47.416;19.402;2023-03-13T12:07:32;6.32;;;1.60;;
63050;SDS011;49136;47.416;19.402;2023-03-13T12:15:27;1.73;;;1.20;;
63050;SDS011;49136;47.416;19.402;2023-03-13T12:18:11;4.95;;;1.58;;
63050;SDS011;49136;47.416;19.402;2023-03-13T12:26:33;1.85;;;1.40;;
63050;SDS011;49136;47.416;19.402;2023-03-13T12:31:47;2.60;;;1.90;;
63050;SDS011;49136;47.416;19.402;2023-03-13T12:34:28;6.32;;;1.58;;
63050;SDS011;49136;47.416;19.402;2023-03-13T12:39:57;4.20;;;1.70;;
63050;SDS011;49136;47.416;19.402;2023-03-13T12:42:37;6.47;;;2.08;;
63050;SDS011;49136;47.416;19.402;2023-03-13T12:45:19;7.20;;;2.60;;
63050;SDS011;49136;47.416;19.402;2023-03-13T13:01:05;4.18;;;2.35;;
63050;SDS011;49136;47.416;19.402;2023-03-13T13:03:35;4.30;;;1.80;;
63050;SDS011;49136;47.416;19.402;2023-03-13T13:06:10;6.35;;;2.58;;
63050;SDS011;49136;47.416;19.402;2023-03-13T13:08:39;4.65;;;2.05;;
63050;SDS011;49136;47.416;19.402;2023-03-13T13:13:57;3.80;;;2.08;;
63050;SDS011;49136;47.416;19.402;2023-03-13T13:16:22;4.35;;;2.42;;
63050;SDS011;49136;47.416;19.402;2023-03-13T13:18:50;3.80;;;2.03;;
63050;SDS011;49136;47.416;19.402;2023-03-13T13:21:19;3.63;;;2.10;;
63050;SDS011;49136;47.416;19.402;2023-03-13T13:23:47;3.47;;;2.20;;
63050;SDS011;49136;47.416;19.402;2023-03-13T13:29:04;3.55;;;2.42;;
63050;SDS011;49136;47.416;19.402;2023-03-13T13:37:00;5.07;;;1.55;;
63050;SDS011;49136;47.416;19.402;2023-03-13T13:39:44;3.63;;;1.58;;
63050;SDS011;49136;47.416;19.402;2023-03-13T13:44:56;5.68;;;1.85;;
63050;SDS011;49136;47.416;19.402;2023-03-13T13:47:22;7.43;;;3.67;;
63050;SDS011;49136;47.416;19.402;2023-03-13T13:49:51;6.10;;;3.40;;
63050;SDS011;49136;47.416;19.402;2023-03-13T13:52:34;4.18;;;2.45;;
63050;SDS011;49136;47.416;19.402;2023-03-13T13:55:02;3.30;;;1.63;;
63050;SDS011;49136;47.416;19.402;2023-03-13T13:57:48;3.92;;;1.80;;
63050;SDS011;49136;47.416;19.402;2023-03-13T14:00:17;2.25;;;1.63;;
63050;SDS011;49136;47.416;19.402;2023-03-13T14:02:53;3.58;;;1.73;;
63050;SDS011;49136;47.416;19.402;2023-03-13T14:05:27;2.75;;;1.83;;
63050;SDS011;49136;47.416;19.402;2023-03-13T14:07:56;6.07;;;1.70;;
63050;SDS011;49136;47.416;19.402;2023-03-13T14:12:59;2.15;;;1.30;;
63050;SDS011;49136;47.416;19.402;2023-03-13T14:15:30;5.57;;;1.80;;
63050;SDS011;49136;47.416;19.402;2023-03-13T14:17:58;2.10;;;1.63;;
63050;SDS011;49136;47.416;19.402;2023-03-13T14:20:54;4.13;;;1.65;;
63050;SDS011;49136;47.416;19.402;2023-03-13T14:23:37;2.25;;;1.45;;
63050;SDS011;49136;47.416;19.402;2023-03-13T14:28:40;6.15;;;1.80;;
63050;SDS011;49136;47.416;19.402;2023-03-13T14:31:07;9.60;;;1.77;;
63050;SDS011;49136;47.416;19.402;2023-03-13T14:33:34;5.47;;;2.28;;
63050;SDS011;49136;47.416;19.402;2023-03-13T14:36:00;2.08;;;1.60;;
63050;SDS011;49136;47.416;19.402;2023-03-13T14:38:26;5.25;;;1.50;;
63050;SDS011;49136;47.416;19.402;2023-03-13T14:40:56;2.53;;;1.08;;
63050;SDS011;49136;47.416;19.402;2023-03-13T14:43:40;4.78;;;1.48;;
63050;SDS011;49136;47.416;19.402;2023-03-13T14:46:13;5.32;;;1.55;;
63050;SDS011;49136;47.416;19.402;2023-03-13T14:49:17;4.55;;;2.17;;
63050;SDS011;49136;47.416;19.402;2023-03-13T14:51:44;5.80;;;1.50;;
63050;SDS011;49136;47.416;19.402;2023-03-13T14:54:24;2.35;;;1.35;;
63050;SDS011;49136;47.416;19.402;2023-03-13T14:57:01;5.88;;;2.08;;
63050;SDS011;49136;47.416;19.402;2023-03-13T14:59:28;4.80;;;2.60;;
63050;SDS011;49136;47.416;19.402;2023-03-13T15:02:00;5.25;;;1.63;;
63050;SDS011;49136;47.416;19.402;2023-03-13T15:07:13;3.97;;;1.00;;
63050;SDS011;49136;47.416;19.402;2023-03-13T15:09:42;2.63;;;1.38;;
63050;SDS011;49136;47.416;19.402;2023-03-13T15:12:13;1.75;;;0.90;;
63050;SDS011;49136;47.416;19.402;2023-03-13T15:17:26;3.15;;;1.35;;
63050;SDS011;49136;47.416;19.402;2023-03-13T15:19:56;8.70;;;2.33;;
63050;SDS011;49136;47.416;19.402;2023-03-13T15:22:34;5.20;;;2.08;;
63050;SDS011;49136;47.416;19.402;2023-03-13T15:25:03;2.83;;;1.33;;
63050;SDS011;49136;47.416;19.402;2023-03-13T15:27:38;3.20;;;1.23;;
63050;SDS011;49136;47.416;19.402;2023-03-13T15:30:04;2.20;;;0.75;;
63050;SDS011;49136;47.416;19.402;2023-03-13T15:32:34;1.98;;;1.20;;
63050;SDS011;49136;47.416;19.402;2023-03-13T15:35:08;3.33;;;1.15;;
63050;SDS011;49136;47.416;19.402;2023-03-13T15:37:51;5.13;;;1.33;;
63050;SDS011;49136;47.416;19.402;2023-03-13T15:40:16;2.65;;;1.13;;
63050;SDS011;49136;47.416;19.402;2023-03-13T15:42:43;4.03;;;1.52;;
63050;SDS011;49136;47.416;19.402;2023-03-13T15:45:09;0.80;;;0.70;;
63050;SDS011;49136;47.416;19.402;2023-03-13T15:47:34;3.95;;;0.95;;
63050;SDS011;49136;47.416;19.402;2023-03-13T15:50:00;1.45;;;1.10;;
63050;SDS011;49136;47.416;19.402;2023-03-13T15:52:25;1.13;;;0.98;;
63050;SDS011;49136;47.416;19.402;2023-03-13T15:54:51;4.65;;;1.40;;
63050;SDS011;49136;47.416;19.402;2023-03-13T15:57:20;2.78;;;0.90;;
63050;SDS011;49136;47.416;19.402;2023-03-13T15:59:48;2.40;;;1.40;;
63050;SDS011;49136;47.416;19.402;2023-03-13T16:02:18;3.50;;;1.10;;
63050;SDS011;49136;47.416;19.402;2023-03-13T16:04:46;1.92;;;1.30;;
63050;SDS011;49136;47.416;19.402;2023-03-13T16:07:12;5.28;;;1.88;;
63050;SDS011;49136;47.416;19.402;2023-03-13T16:09:40;2.17;;;1.35;;
63050;SDS011;49136;47.416;19.402;2023-03-13T16:12:06;4.47;;;2.47;;
63050;SDS011;49136;47.416;19.402;2023-03-13T16:14:33;3.05;;;1.52;;
63050;SDS011;49136;47.416;19.402;2023-03-13T16:16:59;5.20;;;2.47;;
63050;SDS011;49136;47.416;19.402;2023-03-13T16:19:26;3.05;;;1.73;;
63050;SDS011;49136;47.416;19.402;2023-03-13T16:21:52;5.40;;;2.10;;
63050;SDS011;49136;47.416;19.402;2023-03-13T16:24:17;2.97;;;1.70;;
63050;SDS011;49136;47.416;19.402;2023-03-13T16:26:44;3.45;;;1.65;;
63050;SDS011;49136;47.416;19.402;2023-03-13T16:29:14;3.88;;;1.85;;
63050;SDS011;49136;47.416;19.402;2023-03-13T16:31:40;3.28;;;1.58;;
63050;SDS011;49136;47.416;19.402;2023-03-13T16:34:06;2.08;;;1.40;;
63050;SDS011;49136;47.416;19.402;2023-03-13T16:36:33;3.22;;;1.58;;
63050;SDS011;49136;47.416;19.402;2023-03-13T16:39:00;10.77;;;2.10;;
63050;SDS011;49136;47.416;19.402;2023-03-13T16:41:33;3.35;;;1.77;;